Time;durP1;ratioP1;P1;durP2;ratioP2;P2;SDS_P1;SDS_P2;PMS_P1;PMS_P2;Temp;Humidity;BMP_temperature;BMP_pressure;BME280_temperature;BME280_humidity;BME280_pressure;Samples;Min_cycle;Max_cycle;Signal;HPM_P1;HPM_P2
2021/03/23 00:02:18;;;;;;;10.63;6.88;;;17.30;52.80;;;;;;5050764;28;20021;-72
2021/03/23 00:04:44;;;;;;;11.52;6.80;;;17.30;52.90;;;;;;5050720;28;20104;-72
2021/03/23 00:07:09;;;;;;;11.25;7.45;;;17.30;53.00;;;;;;5050230;28;20036;-72
2021/03/23 00:09:35;;;;;;;13.18;7.25;;;17.30;53.20;;;;;;5051108;28;20481;-72
2021/03/23 00:12:00;;;;;;;10.95;7.43;;;17.20;52.90;;;;;;5052355;28;20029;-72
2021/03/23 00:14:26;;;;;;;12.13;7.45;;;17.20;52.90;;;;;;5054052;28;20064;-72
2021/03/23 00:16:52;;;;;;;12.02;7.78;;;17.20;53.10;;;;;;5054804;28;20025;-72
2021/03/23 00:19:17;;;;;;;13.02;8.05;;;17.20;53.10;;;;;;5054734;28;20504;-72
2021/03/23 00:21:43;;;;;;;11.60;7.95;;;17.20;52.90;;;;;;5053850;28;20079;-72
2021/03/23 00:24:10;;;;;;;13.70;7.85;;;17.10;53.00;;;;;;5054470;28;20021;-71
2021/03/23 00:26:35;;;;;;;11.00;7.38;;;17.00;53.10;;;;;;5053773;28;20102;-71
2021/03/23 00:29:02;;;;;;;10.90;7.93;;;17.00;53.00;;;;;;5054009;28;20025;-72
2021/03/23 00:31:29;;;;;;;11.60;7.38;;;17.00;53.10;;;;;;5054066;28;20059;-71
2021/03/23 00:34:00;;;;;;;12.30;7.53;;;16.90;53.80;;;;;;5054418;28;20037;-73
2021/03/23 00:36:31;;;;;;;12.23;7.07;;;16.90;53.20;;;;;;5054108;28;20064;-73
2021/03/23 00:38:57;;;;;;;12.45;7.88;;;16.90;53.20;;;;;;5054107;28;20082;-72
2021/03/23 00:41:23;;;;;;;12.23;7.70;;;16.80;53.30;;;;;;5054185;28;20062;-73
2021/03/23 00:43:49;;;;;;;14.93;8.00;;;16.80;53.40;;;;;;5054134;28;20048;-73
2021/03/23 00:46:14;;;;;;;12.68;7.95;;;16.70;53.30;;;;;;5038946;28;20028;-73
2021/03/23 00:48:41;;;;;;;16.00;8.18;;;16.70;53.30;;;;;;5054053;28;20067;-73
2021/03/23 00:51:07;;;;;;;13.27;7.93;;;16.70;54.00;;;;;;5054038;28;20374;-73
2021/03/23 00:53:32;;;;;;;12.80;8.15;;;16.70;53.40;;;;;;5053972;28;20040;-73
2021/03/23 00:56:01;;;;;;;15.52;8.48;;;16.60;53.30;;;;;;5053727;28;20039;-73
2021/03/23 00:58:27;;;;;;;13.95;8.50;;;16.60;53.40;;;;;;5052695;28;20029;-73
2021/03/23 01:00:52;;;;;;;13.73;8.35;;;16.60;53.50;;;;;;5053756;28;20029;-73
2021/03/23 01:03:18;;;;;;;13.45;8.15;;;16.50;53.40;;;;;;5053595;28;20481;-73
2021/03/23 01:05:46;;;;;;;15.48;8.88;;;16.40;53.50;;;;;;5053473;28;20032;-72
2021/03/23 01:08:12;;;;;;;15.55;8.35;;;16.50;53.40;;;;;;5053872;28;20024;-73
2021/03/23 01:10:38;;;;;;;15.70;7.63;;;16.40;53.50;;;;;;5053428;28;20025;-73
2021/03/23 01:13:03;;;;;;;14.85;8.35;;;16.40;53.50;;;;;;5053494;28;20036;-73
2021/03/23 01:15:31;;;;;;;12.80;7.78;;;16.40;53.40;;;;;;5053660;28;20021;-72
2021/03/23 01:17:58;;;;;;;12.32;7.78;;;16.40;53.50;;;;;;5053357;28;20063;-73
2021/03/23 01:20:25;;;;;;;12.15;8.23;;;16.40;53.60;;;;;;5053574;28;20104;-72
2021/03/23 01:22:51;;;;;;;12.57;7.60;;;16.40;53.50;;;;;;5052359;28;20488;-73
2021/03/23 01:25:18;;;;;;;12.00;8.93;;;16.40;53.50;;;;;;5053322;28;20055;-73
2021/03/23 01:27:44;;;;;;;13.60;8.32;;;16.30;53.40;;;;;;5053683;28;20466;-73
2021/03/23 01:30:11;;;;;;;12.35;8.00;;;16.20;53.40;;;;;;5053453;28;20056;-73
2021/03/23 01:32:38;;;;;;;15.20;9.25;;;16.20;53.40;;;;;;5053327;28;20029;-73
2021/03/23 01:35:05;;;;;;;13.30;7.85;;;16.20;53.40;;;;;;5052814;28;20098;-73
2021/03/23 01:37:30;;;;;;;11.70;8.07;;;16.20;53.40;;;;;;5052990;28;20017;-73
2021/03/23 01:39:56;;;;;;;11.65;7.97;;;16.20;53.50;;;;;;5053018;28;20024;-73
2021/03/23 01:42:22;;;;;;;14.38;8.52;;;16.10;54.00;;;;;;5053112;28;20029;-73
2021/03/23 01:45:26;;;;;;;12.50;8.38;;;16.10;53.60;;;;;;5053139;28;20491;-73
2021/03/23 01:47:53;;;;;;;11.20;8.05;;;16.10;53.60;;;;;;5052953;28;20021;-73
2021/03/23 01:50:21;;;;;;;13.10;7.95;;;16.00;53.60;;;;;;5052656;28;20484;-73
2021/03/23 01:52:54;;;;;;;13.75;8.10;;;16.00;53.60;;;;;;5052980;28;20396;-72
2021/03/23 01:55:20;;;;;;;11.95;7.68;;;16.00;53.60;;;;;;5034950;28;20405;-73
2021/03/23 01:57:48;;;;;;;12.50;8.15;;;16.00;53.70;;;;;;5053009;28;20550;-72
2021/03/23 02:00:14;;;;;;;12.20;7.72;;;16.00;53.70;;;;;;5052795;28;20025;-73
2021/03/23 02:02:40;;;;;;;12.85;8.25;;;16.00;53.70;;;;;;5052338;28;20100;-72
2021/03/23 02:05:07;;;;;;;15.60;8.05;;;15.90;53.60;;;;;;5052289;28;20036;-72
2021/03/23 02:07:33;;;;;;;10.27;7.28;;;15.90;53.70;;;;;;5052286;28;20036;-72
2021/03/23 02:09:58;;;;;;;12.07;8.32;;;15.90;53.60;;;;;;5052455;28;20478;-73
2021/03/23 02:12:29;;;;;;;11.75;7.35;;;15.90;53.70;;;;;;5052330;28;20025;-72
2021/03/23 02:14:55;;;;;;;12.27;7.90;;;15.90;53.70;;;;;;5052326;28;20112;-72
2021/03/23 02:17:26;;;;;;;12.20;7.30;;;15.90;53.70;;;;;;5052428;28;20152;-72
2021/03/23 02:19:58;;;;;;;13.88;7.53;;;15.90;53.70;;;;;;5052426;28;20033;-72
2021/03/23 02:22:27;;;;;;;10.55;7.18;;;15.90;53.70;;;;;;5052095;28;20025;-73
2021/03/23 02:24:52;;;;;;;10.43;7.07;;;15.90;53.80;;;;;;5052141;28;20028;-73
2021/03/23 02:27:19;;;;;;;10.95;6.70;;;15.90;53.80;;;;;;5052351;28;20021;-72
2021/03/23 02:29:46;;;;;;;11.73;7.15;;;15.90;53.80;;;;;;5052484;28;20059;-72
2021/03/23 02:32:12;;;;;;;11.73;7.32;;;15.90;53.80;;;;;;5052066;28;20358;-72
2021/03/23 02:34:37;;;;;;;11.10;7.32;;;15.80;53.80;;;;;;5051456;28;20091;-72
2021/03/23 02:37:04;;;;;;;13.82;7.78;;;15.80;53.80;;;;;;5052137;28;20388;-72
2021/03/23 02:39:32;;;;;;;11.13;7.38;;;15.80;53.90;;;;;;5052056;28;20374;-73
2021/03/23 02:41:58;;;;;;;11.90;7.05;;;15.80;53.90;;;;;;5051507;28;20031;-72
2021/03/23 02:44:25;;;;;;;14.38;7.38;;;15.70;53.90;;;;;;5051461;28;20036;-72
2021/03/23 02:46:51;;;;;;;10.85;7.68;;;15.70;53.90;;;;;;5051963;28;20032;-72
2021/03/23 02:49:17;;;;;;;10.32;7.10;;;15.70;54.00;;;;;;5051977;28;20037;-73
2021/03/23 02:51:42;;;;;;;12.48;6.93;;;15.70;54.00;;;;;;5051672;28;20031;-72
2021/03/23 02:54:08;;;;;;;9.57;6.22;;;15.70;54.00;;;;;;5051604;28;20037;-72
2021/03/23 02:56:34;;;;;;;14.13;7.53;;;15.70;54.00;;;;;;5051715;28;20370;-73
2021/03/23 02:59:00;;;;;;;15.32;7.25;;;15.60;54.00;;;;;;5051750;28;20108;-73
2021/03/23 03:01:26;;;;;;;12.88;7.18;;;15.70;54.00;;;;;;5051618;28;20025;-73
2021/03/23 03:03:52;;;;;;;12.68;7.32;;;15.60;54.00;;;;;;5051257;28;20072;-73
2021/03/23 03:06:18;;;;;;;16.23;7.07;;;15.60;54.00;;;;;;5052018;28;20053;-72
2021/03/23 03:08:43;;;;;;;9.02;6.47;;;15.70;54.00;;;;;;5051459;28;20033;-72
2021/03/23 03:11:10;;;;;;;11.27;6.53;;;15.60;54.00;;;;;;5051380;28;20025;-72
2021/03/23 03:13:36;;;;;;;10.43;6.63;;;15.60;54.00;;;;;;5051337;28;20412;-72
2021/03/23 03:16:04;;;;;;;12.77;7.32;;;15.60;54.00;;;;;;5051553;28;20381;-72
2021/03/23 03:18:30;;;;;;;12.38;7.65;;;15.60;54.10;;;;;;5051652;28;20478;-72
2021/03/23 03:20:57;;;;;;;10.63;6.70;;;15.60;54.00;;;;;;5051313;28;20047;-72
2021/03/23 03:23:23;;;;;;;11.07;6.53;;;15.60;54.10;;;;;;5051144;28;20064;-72
2021/03/23 03:25:52;;;;;;;12.02;7.13;;;15.60;54.10;;;;;;5051457;28;20044;-72
2021/03/23 03:28:19;;;;;;;11.80;7.38;;;15.50;54.10;;;;;;5051860;28;20085;-72
2021/03/23 03:30:45;;;;;;;11.85;7.05;;;15.60;54.10;;;;;;5051425;28;20108;-72
2021/03/23 03:33:14;;;;;;;11.88;7.55;;;15.50;54.10;;;;;;5050970;28;20456;-72
2021/03/23 03:35:42;;;;;;;10.07;6.55;;;15.50;54.10;;;;;;5050890;28;20029;-72
2021/03/23 03:38:08;;;;;;;10.43;7.03;;;15.50;54.10;;;;;;5051222;28;20029;-72
2021/03/23 03:40:43;;;;;;;11.43;6.80;;;15.50;54.20;;;;;;5051020;28;20480;-72
2021/03/23 03:43:10;;;;;;;12.82;7.53;;;15.50;54.20;;;;;;5051465;28;20075;-72
2021/03/23 03:45:36;;;;;;;11.23;7.38;;;15.50;54.20;;;;;;5051168;28;20047;-72
2021/03/23 03:48:02;;;;;;;13.07;7.00;;;15.50;54.20;;;;;;5054880;28;20025;-72
2021/03/23 03:50:29;;;;;;;10.90;7.03;;;15.40;54.20;;;;;;5055098;28;20448;-72
2021/03/23 03:52:58;;;;;;;11.40;6.53;;;15.40;54.10;;;;;;5054774;28;20024;-72
2021/03/23 03:55:32;;;;;;;10.63;7.28;;;15.40;54.10;;;;;;5055315;28;20025;-72
2021/03/23 03:57:58;;;;;;;11.05;6.68;;;15.40;54.10;;;;;;5054932;28;20025;-72
2021/03/23 04:00:28;;;;;;;11.45;7.28;;;15.40;54.20;;;;;;5055386;28;20033;-72
2021/03/23 04:02:54;;;;;;;12.60;7.38;;;15.40;54.80;;;;;;5055076;28;20039;-72
2021/03/23 04:05:24;;;;;;;9.88;6.68;;;15.40;54.20;;;;;;5054856;28;20043;-72
2021/03/23 04:07:50;;;;;;;10.05;6.68;;;15.40;54.20;;;;;;5054737;28;20029;-72
2021/03/23 04:10:17;;;;;;;11.10;6.70;;;15.40;54.20;;;;;;5037031;28;20093;-72
2021/03/23 04:12:42;;;;;;;10.00;6.78;;;15.40;54.20;;;;;;5054786;28;20025;-72
2021/03/23 04:15:09;;;;;;;11.35;6.63;;;15.40;54.20;;;;;;5054605;28;20385;-72
2021/03/23 04:17:35;;;;;;;11.98;7.40;;;15.40;54.20;;;;;;5054729;28;20076;-72
2021/03/23 04:20:01;;;;;;;9.05;6.35;;;15.30;54.20;;;;;;5054401;28;20040;-72
2021/03/23 04:22:27;;;;;;;12.43;7.03;;;15.40;54.20;;;;;;5054555;28;20025;-72
2021/03/23 04:24:52;;;;;;;10.75;6.78;;;15.30;54.20;;;;;;5054996;28;20111;-72
2021/03/23 04:27:18;;;;;;;13.00;7.18;;;15.30;54.30;;;;;;5054560;28;20392;-72
2021/03/23 04:29:43;;;;;;;10.52;7.03;;;15.30;54.30;;;;;;5054322;28;20021;-72
2021/03/23 04:32:09;;;;;;;12.23;6.85;;;15.20;54.30;;;;;;5054260;28;20021;-72
2021/03/23 04:34:35;;;;;;;11.00;7.13;;;15.30;54.30;;;;;;5053727;28;20037;-73
2021/03/23 04:37:01;;;;;;;12.85;7.75;;;15.20;54.30;;;;;;5053965;28;20033;-72
2021/03/23 04:39:26;;;;;;;11.93;7.25;;;15.20;54.30;;;;;;5054034;28;20087;-72
2021/03/23 04:41:52;;;;;;;10.05;7.10;;;15.20;54.20;;;;;;5054574;28;20021;-73
2021/03/23 04:44:17;;;;;;;11.00;6.88;;;15.20;54.20;;;;;;5053955;28;20564;-72
2021/03/23 04:46:43;;;;;;;11.13;7.18;;;15.20;54.20;;;;;;5053959;28;20040;-73
2021/03/23 04:49:08;;;;;;;11.82;7.15;;;15.20;54.20;;;;;;5053833;28;20029;-72
2021/03/23 04:51:34;;;;;;;11.05;6.95;;;15.20;54.30;;;;;;5054133;28;20469;-72
2021/03/23 04:54:07;;;;;;;10.63;6.90;;;15.20;54.30;;;;;;5053928;28;20072;-72
2021/03/23 04:56:36;;;;;;;12.30;6.63;;;15.20;54.30;;;;;;5053855;28;20485;-72
2021/03/23 04:59:02;;;;;;;14.02;7.65;;;15.20;54.30;;;;;;5052556;28;20481;-72
2021/03/23 05:01:28;;;;;;;12.07;7.07;;;15.20;54.20;;;;;;5054013;28;20028;-73
2021/03/23 05:03:59;;;;;;;13.85;7.53;;;15.10;54.20;;;;;;5053492;28;20036;-72
2021/03/23 05:06:26;;;;;;;13.50;7.97;;;15.10;54.30;;;;;;5054078;28;20066;-72
2021/03/23 05:08:52;;;;;;;10.38;7.10;;;15.20;54.30;;;;;;5053599;28;20028;-72
2021/03/23 05:11:21;;;;;;;10.70;7.15;;;15.10;54.20;;;;;;5053677;28;20029;-72
2021/03/23 05:13:47;;;;;;;15.45;7.95;;;15.10;54.30;;;;;;5053373;28;20029;-72
2021/03/23 05:16:13;;;;;;;13.05;7.10;;;15.10;54.30;;;;;;5053490;28;20048;-72
2021/03/23 05:18:39;;;;;;;11.65;7.05;;;15.10;54.30;;;;;;5053488;28;20409;-72
2021/03/23 05:21:05;;;;;;;11.93;7.50;;;15.10;54.30;;;;;;5053440;28;20032;-72
2021/03/23 05:23:32;;;;;;;9.93;6.63;;;15.10;54.30;;;;;;5053551;28;20433;-73
2021/03/23 05:25:57;;;;;;;15.48;7.55;;;15.10;54.30;;;;;;5053427;28;20029;-72
2021/03/23 05:28:23;;;;;;;12.48;7.70;;;15.10;54.40;;;;;;5053516;28;20044;-72
2021/03/23 05:30:50;;;;;;;11.18;7.30;;;15.00;54.30;;;;;;5053112;28;20181;-72
2021/03/23 05:33:16;;;;;;;11.57;7.35;;;15.00;54.30;;;;;;5052629;28;20544;-72
2021/03/23 05:35:42;;;;;;;14.50;8.43;;;15.10;54.40;;;;;;5053236;28;20025;-72
2021/03/23 05:38:08;;;;;;;12.35;7.03;;;15.00;54.30;;;;;;5053142;28;20033;-72
2021/03/23 05:40:41;;;;;;;10.13;7.00;;;15.10;54.40;;;;;;5052989;28;20553;-72
2021/03/23 05:43:21;;;;;;;13.07;7.50;;;15.00;54.30;;;;;;5052314;28;20029;-72
2021/03/23 05:45:47;;;;;;;11.32;6.80;;;15.00;54.30;;;;;;5053054;28;20051;-72
2021/03/23 05:48:25;;;;;;;12.60;7.55;;;15.00;54.30;;;;;;5052839;28;20065;-72
2021/03/23 05:51:10;;;;;;;12.50;7.45;;;15.00;54.30;;;;;;5053044;28;20032;-72
2021/03/23 05:53:44;;;;;;;13.32;7.78;;;15.00;54.30;;;;;;5052937;28;20033;-72
2021/03/23 05:56:11;;;;;;;13.68;7.70;;;15.00;54.20;;;;;;5052930;28;20100;-72
2021/03/23 05:58:41;;;;;;;14.00;8.07;;;15.00;54.20;;;;;;5052916;28;20021;-72
2021/03/23 06:01:23;;;;;;;13.32;8.02;;;15.00;54.30;;;;;;5051686;28;20033;-72
2021/03/23 06:04:25;;;;;;;14.10;8.23;;;15.00;54.30;;;;;;5052550;28;20025;-72
2021/03/23 06:07:00;;;;;;;11.13;7.47;;;14.90;54.90;;;;;;5052787;28;20021;-72
2021/03/23 06:09:38;;;;;;;12.60;7.70;;;14.90;54.30;;;;;;5034616;28;20079;-72
2021/03/23 06:12:27;;;;;;;17.25;7.80;;;15.00;54.40;;;;;;5034305;28;20690;-72
2021/03/23 06:15:08;;;;;;;12.82;7.43;;;14.90;54.30;;;;;;5052328;28;20556;-72
2021/03/23 06:17:47;;;;;;;16.25;7.28;;;14.90;54.40;;;;;;5052521;28;20051;-72
2021/03/23 06:20:35;;;;;;;12.60;7.63;;;14.90;54.30;;;;;;5052503;28;20025;-72
2021/03/23 06:23:12;;;;;;;13.23;7.63;;;14.90;54.30;;;;;;5052392;28;20392;-72
2021/03/23 06:26:07;;;;;;;11.40;7.72;;;14.90;54.30;;;;;;5052272;28;20032;-72
2021/03/23 06:28:54;;;;;;;14.35;8.25;;;14.90;54.30;;;;;;5052094;28;20143;-72
2021/03/23 06:31:41;;;;;;;13.60;8.00;;;14.90;54.30;;;;;;5051827;28;20124;-72
2021/03/23 06:34:15;;;;;;;13.15;8.23;;;14.90;54.30;;;;;;5052166;28;20033;-72
2021/03/23 06:36:41;;;;;;;15.05;7.65;;;14.80;54.30;;;;;;5051955;28;20028;-72
2021/03/23 06:39:07;;;;;;;13.57;8.18;;;14.80;54.30;;;;;;5051581;28;20029;-72
2021/03/23 06:41:35;;;;;;;12.27;8.38;;;14.80;54.40;;;;;;5052183;28;20052;-72
2021/03/23 06:44:12;;;;;;;15.85;8.63;;;14.80;54.40;;;;;;5052175;28;20037;-72
2021/03/23 06:46:46;;;;;;;13.77;8.02;;;14.80;54.40;;;;;;5034760;28;20054;-72
2021/03/23 06:49:15;;;;;;;14.00;8.18;;;14.80;54.40;;;;;;5050027;28;20455;-72
2021/03/23 06:51:53;;;;;;;15.77;8.70;;;14.80;54.40;;;;;;5033736;28;20025;-72
2021/03/23 06:54:19;;;;;;;13.48;8.80;;;14.80;54.40;;;;;;5051427;28;20508;-71
2021/03/23 06:56:45;;;;;;;14.00;8.23;;;14.80;54.40;;;;;;5050673;28;20050;-71
2021/03/23 06:59:19;;;;;;;13.02;8.02;;;14.70;54.40;;;;;;5051861;28;20025;-71
2021/03/23 07:01:46;;;;;;;15.80;8.68;;;14.80;54.50;;;;;;5051319;28;20108;-71
2021/03/23 07:04:27;;;;;;;13.50;8.00;;;14.70;54.30;;;;;;5051769;28;20017;-72
2021/03/23 07:07:19;;;;;;;14.13;8.63;;;14.80;54.40;;;;;;5051199;28;20064;-73
2021/03/23 07:10:15;;;;;;;12.20;7.40;;;14.70;54.40;;;;;;5034607;28;20028;-72
2021/03/23 07:12:45;;;;;;;12.55;6.85;;;14.80;54.30;;;;;;5051631;28;20035;-73
2021/03/23 07:15:16;;;;;;;15.45;7.35;;;15.00;54.10;;;;;;5050415;28;20080;-73
2021/03/23 07:17:48;;;;;;;12.90;6.45;;;15.10;53.80;;;;;;5051133;28;20500;-73
2021/03/23 07:20:32;;;;;;;11.55;5.82;;;15.40;53.40;;;;;;5050862;28;20021;-73
2021/03/23 07:23:00;;;;;;;10.57;6.13;;;15.70;53.00;;;;;;5031171;28;20040;-73
2021/03/23 07:25:41;;;;;;;10.57;5.68;;;15.90;52.80;;;;;;5035736;28;20033;-72
2021/03/23 07:28:24;;;;;;;11.23;5.63;;;16.30;52.70;;;;;;5033435;28;20037;-73
2021/03/23 07:31:12;;;;;;;10.27;5.57;;;16.40;52.70;;;;;;5040783;28;20083;-72
2021/03/23 07:33:56;;;;;;;9.90;5.63;;;16.60;52.70;;;;;;5050578;28;20368;-73
2021/03/23 07:36:30;;;;;;;10.77;5.57;;;16.80;53.40;;;;;;5050808;28;20025;-72
2021/03/23 07:39:12;;;;;;;13.68;7.50;;;17.10;52.70;;;;;;5051064;28;20162;-72
2021/03/23 07:41:43;;;;;;;13.18;7.53;;;17.30;52.30;;;;;;5050929;28;20025;-72
2021/03/23 07:44:17;;;;;;;14.93;7.43;;;17.50;52.20;;;;;;5050721;28;20059;-72
2021/03/23 07:46:47;;;;;;;11.45;7.32;;;18.00;52.10;;;;;;5050708;28;20037;-72
2021/03/23 07:49:22;;;;;;;14.13;7.40;;;18.20;51.80;;;;;;5050647;28;20572;-73
2021/03/23 07:51:59;;;;;;;13.25;7.45;;;18.00;52.50;;;;;;5049776;28;20026;-72
2021/03/23 07:54:33;;;;;;;13.23;7.00;;;18.00;52.90;;;;;;5047209;28;20033;-73
2021/03/23 07:57:36;;;;;;;11.70;6.82;;;18.10;53.20;;;;;;5031882;28;20481;-72
2021/03/23 08:00:10;;;;;;;12.55;7.13;;;18.20;52.90;;;;;;5051645;28;20029;-72
2021/03/23 08:02:55;;;;;;;13.55;8.40;;;18.10;52.50;;;;;;5049220;28;20108;-71
2021/03/23 08:05:50;;;;;;;12.93;7.55;;;18.00;52.50;;;;;;5049254;28;20099;-72
2021/03/23 08:08:47;;;;;;;11.82;6.95;;;18.00;52.80;;;;;;5050692;28;20029;-71
2021/03/23 08:11:31;;;;;;;;;;;18.00;52.70;;;;;;5046748;28;20500;-72
2021/03/23 08:14:02;;;;;;;14.48;7.68;;;18.00;52.40;;;;;;5049656;28;19924;-73
2021/03/23 08:16:42;;;;;;;10.52;6.53;;;18.00;52.30;;;;;;5050731;28;20529;-72
2021/03/23 08:19:45;;;;;;;14.60;6.57;;;18.00;52.30;;;;;;5049090;28;20091;-73
2021/03/23 08:22:38;;;;;;;12.30;6.40;;;18.00;52.20;;;;;;5043747;28;20025;-73
2021/03/23 08:25:58;;;;;;;13.07;6.72;;;18.00;52.10;;;;;;5051417;28;20026;-73
2021/03/23 08:28:34;;;;;;;9.95;5.78;;;18.00;52.00;;;;;;5006326;28;20125;-73
2021/03/23 08:31:28;;;;;;;9.23;5.95;;;18.00;51.90;;;;;;5041775;28;20036;-72
2021/03/23 08:34:19;;;;;;;14.07;6.18;;;18.00;51.90;;;;;;5053817;28;20049;-73
2021/03/23 08:37:21;;;;;;;11.45;6.00;;;18.00;51.90;;;;;;5054451;28;20071;-73
2021/03/23 08:40:06;;;;;;;8.57;5.50;;;18.00;51.90;;;;;;5047802;28;20036;-73
2021/03/23 08:42:32;;;;;;;13.10;6.28;;;18.00;51.90;;;;;;5053720;28;20032;-73
2021/03/23 08:45:18;;;;;;;11.50;5.63;;;18.00;52.00;;;;;;5053552;28;20610;-73
2021/03/23 08:47:50;;;;;;;10.60;6.20;;;17.90;51.90;;;;;;5053782;28;20043;-71
2021/03/23 08:50:27;;;;;;;12.02;6.28;;;17.90;51.90;;;;;;5053166;28;20106;-73
2021/03/23 08:52:56;;;;;;;8.23;5.45;;;17.90;51.90;;;;;;5053248;28;20045;-73
2021/03/23 08:55:27;;;;;;;11.95;6.68;;;17.80;51.60;;;;;;5054093;28;20021;-72
2021/03/23 08:58:07;;;;;;;10.20;5.70;;;17.80;51.80;;;;;;5053732;28;20029;-73
2021/03/23 09:00:36;;;;;;;8.68;5.28;;;17.80;51.80;;;;;;5052646;28;20132;-73
2021/03/23 09:03:37;;;;;;;10.23;5.45;;;17.70;51.80;;;;;;5035693;28;20127;-73
2021/03/23 09:06:03;;;;;;;12.35;5.60;;;17.80;51.40;;;;;;5053885;28;20437;-73
2021/03/23 09:08:38;;;;;;;11.32;5.68;;;17.70;51.80;;;;;;5053085;28;20063;-73
2021/03/23 09:11:33;;;;;;;8.18;5.38;;;17.70;51.80;;;;;;5053642;28;20476;-72
2021/03/23 09:14:16;;;;;;;9.55;5.25;;;17.70;51.60;;;;;;5051330;28;20492;-73
2021/03/23 09:16:47;;;;;;;10.50;5.38;;;17.60;52.10;;;;;;5053623;28;20033;-73
2021/03/23 09:19:31;;;;;;;10.40;5.32;;;17.60;51.60;;;;;;5052853;28;20090;-73
2021/03/23 09:22:00;;;;;;;6.88;4.80;;;17.60;51.60;;;;;;5053100;28;20036;-72
2021/03/23 09:24:31;;;;;;;8.63;5.25;;;17.60;51.30;;;;;;5053286;28;20100;-73
2021/03/23 09:26:57;;;;;;;10.23;5.75;;;17.50;51.30;;;;;;5053463;28;20484;-73
2021/03/23 09:29:31;;;;;;;8.60;5.05;;;17.50;51.30;;;;;;5053014;28;20067;-73
2021/03/23 09:31:57;;;;;;;9.02;4.93;;;17.50;51.40;;;;;;5053022;28;20061;-73
2021/03/23 09:35:00;;;;;;;10.27;5.90;;;17.50;51.50;;;;;;5052883;28;20072;-73
2021/03/23 09:38:18;;;;;;;9.30;5.63;;;17.50;51.60;;;;;;5053211;28;20040;-72
2021/03/23 09:41:06;;;;;;;8.50;5.32;;;17.40;51.50;;;;;;5028212;28;20091;-72
2021/03/23 09:43:36;;;;;;;10.00;5.43;;;17.40;51.40;;;;;;5052258;28;20070;-72
2021/03/23 09:46:29;;;;;;;10.07;5.22;;;17.30;51.60;;;;;;5052941;28;20108;-72
2021/03/23 09:49:19;;;;;;;12.02;5.63;;;17.30;51.50;;;;;;5023177;28;20389;-71
2021/03/23 09:52:11;;;;;;;8.48;4.75;;;17.30;51.60;;;;;;5041954;28;20029;-72
2021/03/23 09:54:38;;;;;;;6.85;4.18;;;17.30;51.40;;;;;;5046693;28;20098;-72
2021/03/23 09:57:13;;;;;;;8.88;4.70;;;17.30;51.50;;;;;;5052376;28;20194;-72
2021/03/23 09:59:47;;;;;;;9.68;5.10;;;17.30;51.50;;;;;;5051950;28;20032;-72
2021/03/23 10:02:18;;;;;;;11.90;5.78;;;17.30;51.40;;;;;;5052582;28;20035;-72
2021/03/23 10:04:45;;;;;;;11.65;5.72;;;17.30;51.50;;;;;;5052699;28;20025;-73
2021/03/23 10:07:39;;;;;;;11.60;5.53;;;17.30;51.50;;;;;;5052477;28;20021;-72
2021/03/23 10:10:33;;;;;;;7.60;4.80;;;17.30;51.50;;;;;;5051495;28;20036;-72
2021/03/23 10:13:18;;;;;;;10.90;5.38;;;17.30;51.50;;;;;;5052548;28;20029;-72
2021/03/23 10:15:44;;;;;;;10.10;5.70;;;17.30;51.40;;;;;;5052805;28;20492;-72
2021/03/23 10:18:48;;;;;;;9.30;5.78;;;17.30;51.40;;;;;;5051691;28;20025;-72
2021/03/23 10:21:16;;;;;;;9.45;5.07;;;17.30;51.40;;;;;;4991514;28;20507;-72
2021/03/23 10:23:51;;;;;;;8.73;4.72;;;17.30;51.40;;;;;;4994049;28;20434;-72
2021/03/23 10:26:17;;;;;;;10.50;5.15;;;17.30;51.40;;;;;;5012974;28;20044;-72
2021/03/23 10:28:54;;;;;;;7.75;4.97;;;17.30;52.00;;;;;;5051707;28;20025;-72
2021/03/23 10:31:35;;;;;;;8.77;5.50;;;17.30;51.30;;;;;;5051992;28;20100;-72
2021/03/23 10:34:26;;;;;;;11.32;5.10;;;17.30;51.30;;;;;;5051486;28;20044;-72
2021/03/23 10:37:08;;;;;;;8.38;4.97;;;17.40;51.30;;;;;;5034169;28;20051;-72
2021/03/23 10:39:48;;;;;;;10.88;5.57;;;17.40;51.30;;;;;;5052100;28;20400;-72
2021/03/23 10:42:25;;;;;;;8.68;5.05;;;17.40;51.30;;;;;;5052310;28;20481;-74
2021/03/23 10:45:13;;;;;;;8.05;4.93;;;17.40;51.30;;;;;;5033914;28;20488;-74
2021/03/23 10:47:45;;;;;;;9.55;4.90;;;17.40;51.30;;;;;;5051895;28;20424;-74
2021/03/23 10:50:19;;;;;;;8.43;4.35;;;17.40;51.40;;;;;;5032944;28;20471;-73
2021/03/23 10:52:45;;;;;;;10.27;4.93;;;17.50;51.20;;;;;;5051425;28;20486;-73
2021/03/23 10:55:23;;;;;;;6.95;4.35;;;17.50;51.20;;;;;;5050806;28;20108;-73
2021/03/23 10:57:49;;;;;;;11.65;4.75;;;17.50;51.10;;;;;;5051730;28;20108;-73
2021/03/23 11:00:23;;;;;;;7.90;4.30;;;17.50;51.00;;;;;;5052161;28;20104;-73
2021/03/23 11:02:48;;;;;;;8.77;4.63;;;17.60;51.10;;;;;;5051803;28;20025;-73
2021/03/23 11:05:18;;;;;;;7.15;4.18;;;17.60;51.00;;;;;;5034456;28;20033;-73
2021/03/23 11:07:54;;;;;;;7.05;4.20;;;17.60;50.90;;;;;;5052107;28;20395;-74
2021/03/23 11:10:23;;;;;;;8.90;4.68;;;17.70;50.90;;;;;;5051516;28;20439;-73
2021/03/23 11:12:49;;;;;;;6.90;4.00;;;17.70;50.70;;;;;;5051427;28;20032;-73
2021/03/23 11:15:15;;;;;;;7.40;3.65;;;17.80;51.00;;;;;;5051889;28;20036;-73
2021/03/23 11:17:47;;;;;;;7.18;3.92;;;17.80;50.50;;;;;;5033862;28;20029;-73
2021/03/23 11:20:36;;;;;;;6.63;3.28;;;17.80;50.40;;;;;;5051714;28;20081;-73
2021/03/23 11:23:05;;;;;;;6.47;3.92;;;17.80;50.50;;;;;;5051456;28;20029;-73
2021/03/23 11:25:31;;;;;;;7.15;4.07;;;17.80;50.40;;;;;;5051251;28;20024;-73
2021/03/23 11:27:58;;;;;;;6.55;3.60;;;17.90;50.50;;;;;;5032885;28;20052;-73
2021/03/23 11:30:24;;;;;;;8.95;3.88;;;17.90;50.40;;;;;;5050604;28;20075;-73
2021/03/23 11:32:50;;;;;;;7.28;4.03;;;18.00;50.30;;;;;;5049696;28;20033;-73
2021/03/23 11:35:18;;;;;;;6.90;3.50;;;18.00;50.30;;;;;;5051034;28;20138;-75
2021/03/23 11:37:44;;;;;;;8.60;3.83;;;17.90;50.30;;;;;;5050401;28;20029;-74
2021/03/23 11:40:11;;;;;;;6.15;3.17;;;18.00;50.30;;;;;;5050910;28;20055;-73
2021/03/23 11:42:41;;;;;;;8.35;3.72;;;17.90;50.30;;;;;;5050177;28;20548;-74
2021/03/23 11:45:28;;;;;;;6.88;3.47;;;17.90;50.50;;;;;;5031129;28;20028;-74
2021/03/23 11:47:59;;;;;;;;;;;17.90;50.50;;;;;;5048810;28;20045;-75
2021/03/23 11:50:29;;;;;;;5.75;3.47;;;17.90;50.40;;;;;;5045395;28;19947;-74
2021/03/23 11:52:56;;;;;;;6.97;3.45;;;17.90;50.60;;;;;;5031628;28;20526;-73
2021/03/23 11:55:28;;;;;;;8.45;3.90;;;17.90;50.80;;;;;;5050704;28;20406;-73
2021/03/23 11:57:54;;;;;;;7.35;3.47;;;17.90;50.80;;;;;;5051136;28;20104;-73
2021/03/23 12:00:23;;;;;;;5.28;3.20;;;17.90;51.00;;;;;;5051219;28;20056;-73
2021/03/23 12:02:49;;;;;;;7.75;3.92;;;17.80;51.10;;;;;;5051382;28;20029;-73
2021/03/23 12:05:16;;;;;;;7.90;3.65;;;17.80;51.10;;;;;;5051473;28;20104;-73
2021/03/23 12:08:21;;;;;;;7.05;3.60;;;17.90;51.00;;;;;;5052788;28;20025;-72
2021/03/23 12:10:55;;;;;;;6.97;3.67;;;18.00;50.70;;;;;;5054221;28;20021;-74
2021/03/23 12:13:30;;;;;;;9.27;3.45;;;18.20;50.70;;;;;;5053105;28;20060;-75
2021/03/23 12:16:06;;;;;;;6.22;3.80;;;18.20;50.60;;;;;;5050599;28;20103;-75
2021/03/23 12:18:32;;;;;;;;;;;18.30;50.70;;;;;;5053718;28;20017;-75
2021/03/23 12:21:01;;;;;;;7.25;3.10;;;18.50;51.80;;;;;;5053301;28;20665;-75
2021/03/23 12:23:32;;;;;;;7.45;3.72;;;18.50;51.80;;;;;;5053045;28;20013;-75
2021/03/23 12:25:59;;;;;;;6.82;3.83;;;18.60;51.60;;;;;;5050713;28;20158;-74
2021/03/23 12:28:26;;;;;;;7.18;3.40;;;18.70;51.10;;;;;;5053924;28;20028;-72
2021/03/23 12:30:51;;;;;;;5.15;3.65;;;18.80;50.60;;;;;;5052720;28;20081;-72
2021/03/23 12:33:17;;;;;;;7.55;3.75;;;18.90;50.40;;;;;;5053145;28;20025;-70
2021/03/23 12:35:46;;;;;;;6.55;3.22;;;18.90;50.20;;;;;;5053163;28;20029;-72
2021/03/23 12:38:19;;;;;;;7.55;3.00;;;19.00;50.10;;;;;;5053659;28;20025;-76
2021/03/23 12:40:44;;;;;;;7.68;3.67;;;19.10;50.10;;;;;;5034712;28;20030;-77
2021/03/23 12:43:27;;;;;;;5.72;3.30;;;19.10;50.20;;;;;;5048319;28;20512;-76
2021/03/23 12:45:56;;;;;;;8.18;3.40;;;19.10;50.30;;;;;;5034333;28;20025;-74
2021/03/23 12:48:22;;;;;;;13.63;3.22;;;19.10;50.30;;;;;;5044713;28;20036;-76
2021/03/23 12:50:48;;;;;;;6.80;3.75;;;19.10;50.50;;;;;;5036130;28;20396;-77
2021/03/23 12:53:17;;;;;;;53.58;6.93;;;19.20;50.40;;;;;;5053696;28;20037;-73
2021/03/23 12:55:48;;;;;;;54.15;8.25;;;19.20;50.60;;;;;;5054020;28;20424;-75
2021/03/23 12:58:17;;;;;;;58.13;8.20;;;19.10;50.60;;;;;;5033992;28;20029;-73
2021/03/23 13:00:43;;;;;;;60.85;9.98;;;19.10;51.50;;;;;;5033877;28;20500;-72
2021/03/23 13:03:15;;;;;;;56.70;9.88;;;19.20;51.20;;;;;;5033987;28;20028;-72
2021/03/23 13:05:41;;;;;;;37.13;7.97;;;19.10;51.20;;;;;;5033876;28;20418;-72
2021/03/23 13:08:29;;;;;;;45.33;7.15;;;19.10;51.40;;;;;;5033947;28;20104;-72